Time;durP1;ratioP1;P1;durP2;ratioP2;P2;SDS_P1;SDS_P2;PMS_P1;PMS_P2;Temp;Humidity;BMP_temperature;BMP_pressure;BME280_temperature;BME280_humidity;BME280_pressure;Samples;Min_cycle;Max_cycle;Signal;HPM_P1;HPM_P2
2019/04/21 00:00:33;;;;;;;6.1;5.6;;;;;;;24.43;24.11914;1007.963;;;;
2019/04/21 00:03:01;;;;;;;6.2;5.6;;;;;;;24.43;24.12012;1007.975;;;;
2019/04/21 00:05:30;;;;;;;6.1;5.5;;;;;;;24.43;24.13184;1007.976;;;;
2019/04/21 00:08:02;;;;;;;6.9;5.9;;;;;;;24.42;24.14355;1007.914;;;;
2019/04/21 00:10:33;;;;;;;6.4;5.7;;;;;;;24.42;24.15527;1007.931;;;;
2019/04/21 00:13:04;;;;;;;6.6;6;;;;;;;24.41;24.17871;1007.915;;;;
2019/04/21 00:15:34;;;;;;;6.4;5.8;;;;;;;24.41;24.18945;1007.935;;;;
2019/04/21 00:18:32;;;;;;;6.8;5.6;;;;;;;24.4;24.22461;1007.885;;;;
2019/04/21 00:20:35;;;;;;;6.5;5.8;;;;;;;24.4;24.24805;1007.96;;;;
2019/04/21 00:23:05;;;;;;;6.7;6;;;;;;;24.39;24.27148;1007.902;;;;
2019/04/21 00:25:36;;;;;;;6.4;5.9;;;;;;;24.38;24.2832;1007.88;;;;
2019/04/21 00:28:09;;;;;;;6.9;6.3;;;;;;;24.37;24.29395;1007.824;;;;
2019/04/21 00:30:38;;;;;;;6.9;6;;;;;;;24.35;24.3291;1007.832;;;;
2019/04/21 00:33:10;;;;;;;6.3;5.7;;;;;;;24.37;24.30664;1007.773;;;;
2019/04/21 00:35:41;;;;;;;6.3;5.7;;;;;;;24.35;24.34082;1007.769;;;;
2019/04/21 00:38:10;;;;;;;6.3;5.7;;;;;;;24.35;24.34082;1007.714;;;;
2019/04/21 00:40:41;;;;;;;6.7;6;;;;;;;24.35;24.35254;1007.745;;;;
2019/04/21 00:43:12;;;;;;;6.5;5.9;;;;;;;24.35;24.35254;1007.782;;;;
2019/04/21 00:45:42;;;;;;;6;5.4;;;;;;;24.33;24.36328;1007.75;;;;
2019/04/21 00:48:13;;;;;;;6.3;5.7;;;;;;;24.34;24.35156;1007.735;;;;
2019/04/21 00:50:45;;;;;;;6.2;5.6;;;;;;;24.33;24.36328;1007.691;;;;
2019/04/21 00:53:20;;;;;;;6.9;6.1;;;;;;;24.33;24.35156;1007.695;;;;
2019/04/21 00:55:45;;;;;;;6.4;5.8;;;;;;;24.33;24.35156;1007.654;;;;
2019/04/21 00:58:18;;;;;;;6.4;5.7;;;;;;;24.33;24.36328;1007.668;;;;
2019/04/21 01:00:48;;;;;;;6.1;5.6;;;;;;;24.32;24.37402;1007.702;;;;
2019/04/21 01:03:20;;;;;;;6.4;5.8;;;;;;;24.31;24.38574;1007.631;;;;
2019/04/21 01:05:47;;;;;;;6.2;5.5;;;;;;;24.31;24.39746;1007.653;;;;
2019/04/21 01:08:19;;;;;;;6.4;5.8;;;;;;;24.31;24.39746;1007.635;;;;
2019/04/21 01:10:50;;;;;;;6.4;5.8;;;;;;;24.29;24.43262;1007.611;;;;
2019/04/21 01:13:20;;;;;;;6.5;5.9;;;;;;;24.29;24.45605;1007.666;;;;
2019/04/21 01:15:50;;;;;;;6.7;5.5;;;;;;;24.29;24.46777;1007.616;;;;
2019/04/21 01:18:22;;;;;;;6.7;6;;;;;;;24.28;24.47852;1007.632;;;;
2019/04/21 01:20:51;;;;;;;6.6;6;;;;;;;24.28;24.50293;1007.604;;;;
2019/04/21 01:23:24;;;;;;;6.5;5.8;;;;;;;24.27;24.53809;1007.598;;;;
2019/04/21 01:25:53;;;;;;;6.5;5.9;;;;;;;24.26;24.54883;1007.499;;;;
2019/04/21 01:28:26;;;;;;;7;6.3;;;;;;;24.26;24.56055;1007.468;;;;
2019/04/21 01:30:54;;;;;;;7.6;5.8;;;;;;;24.25;24.55957;1007.479;;;;
2019/04/21 01:33:26;;;;;;;6.8;6.2;;;;;;;24.25;24.55957;1007.511;;;;
2019/04/21 01:35:55;;;;;;;6.8;6.1;;;;;;;24.25;24.55957;1007.497;;;;
2019/04/21 01:38:52;;;;;;;8.1;6;;;;;;;24.24;24.55957;1007.516;;;;
2019/04/21 01:41:25;;;;;;;6.3;5.7;;;;;;;24.23;24.57129;1007.459;;;;
2019/04/21 01:43:56;;;;;;;6.3;5.7;;;;;;;24.23;24.54785;1007.459;;;;
2019/04/21 01:46:25;;;;;;;6.9;6.1;;;;;;;24.24;24.54785;1007.385;;;;
2019/04/21 01:48:56;;;;;;;6.5;5.8;;;;;;;24.23;24.52344;1007.372;;;;
2019/04/21 01:51:28;;;;;;;6.3;5.7;;;;;;;24.24;24.5;1007.371;;;;
2019/04/21 01:56:36;;;;;;;6.5;5.9;;;;;;;24.22;24.4873;1007.292;;;;
2019/04/21 01:59:03;;;;;;;6;5.4;;;;;;;24.22;24.47559;1007.256;;;;
2019/04/21 02:01:31;;;;;;;5.9;5.4;;;;;;;24.22;24.44043;1007.225;;;;
2019/04/21 02:04:01;;;;;;;6;5.5;;;;;;;24.21;24.44043;1007.248;;;;
2019/04/21 02:06:31;;;;;;;7.6;5.7;;;;;;;24.21;24.42773;1007.267;;;;
2019/04/21 02:09:03;;;;;;;6.3;5.7;;;;;;;24.2;24.41504;1007.187;;;;
2019/04/21 02:11:32;;;;;;;6.4;5.8;;;;;;;24.21;24.39258;1007.226;;;;
2019/04/21 02:14:04;;;;;;;5.9;5.4;;;;;;;24.2;24.37891;1007.206;;;;
2019/04/21 02:16:35;;;;;;;6.4;5.8;;;;;;;24.19;24.36719;1007.208;;;;
2019/04/21 02:19:06;;;;;;;6.2;5.6;;;;;;;24.18;24.36719;1007.2;;;;
2019/04/21 02:21:35;;;;;;;6.4;5.8;;;;;;;24.18;24.35547;1007.209;;;;
2019/04/21 02:24:07;;;;;;;5.9;5.3;;;;;;;24.17;24.35449;1007.157;;;;
2019/04/21 02:26:36;;;;;;;6;5.4;;;;;;;24.18;24.34277;1007.16;;;;
2019/04/21 02:29:08;;;;;;;7.2;5.9;;;;;;;24.16;24.33008;1007.167;;;;
2019/04/21 02:31:37;;;;;;;6;5.5;;;;;;;24.17;24.30762;1007.129;;;;
2019/04/21 02:34:09;;;;;;;6.1;5.5;;;;;;;24.16;24.31836;1007.054;;;;
2019/04/21 02:36:39;;;;;;;5.9;5.3;;;;;;;24.16;24.29395;1006.963;;;;
2019/04/21 02:39:10;;;;;;;6.2;5.6;;;;;;;24.15;24.29395;1006.937;;;;
2019/04/21 02:41:41;;;;;;;6;5.5;;;;;;;24.14;24.28223;1006.898;;;;
2019/04/21 02:44:11;;;;;;;6.1;5.6;;;;;;;24.14;24.26953;1006.866;;;;
2019/04/21 02:46:42;;;;;;;6.6;5.7;;;;;;;24.14;24.23438;1006.898;;;;
2019/04/21 02:49:44;;;;;;;5.9;5.3;;;;;;;24.14;24.22266;1006.819;;;;
2019/04/21 02:52:17;;;;;;;5.8;5.2;;;;;;;24.14;24.21094;1006.807;;;;
2019/04/21 02:54:47;;;;;;;6;5.4;;;;;;;24.12;24.22168;1006.71;;;;
2019/04/21 02:57:20;;;;;;;5.6;5.1;;;;;;;24.11;24.20996;1006.716;;;;
2019/04/21 02:59:51;;;;;;;6.3;5.2;;;;;;;24.12;24.18555;1006.72;;;;
2019/04/21 03:04:59;;;;;;;6.1;5.4;;;;;;;24.09;24.17285;1006.693;;;;
2019/04/21 03:07:13;;;;;;;5.9;5.3;;;;;;;24.1;24.16113;1006.664;;;;
2019/04/21 03:09:43;;;;;;;7;5.6;;;;;;;24.1;24.1377;1006.659;;;;
2019/04/21 03:12:14;;;;;;;5.9;5.3;;;;;;;24.1;24.13672;1006.674;;;;
2019/04/21 03:14:46;;;;;;;6.2;5.6;;;;;;;24.1;24.125;1006.596;;;;
2019/04/21 03:17:15;;;;;;;6;5.4;;;;;;;24.09;24.11328;1006.684;;;;
2019/04/21 03:19:47;;;;;;;5.8;5.2;;;;;;;24.09;24.10156;1006.629;;;;
2019/04/21 03:22:17;;;;;;;6;5.4;;;;;;;24.09;24.10156;1006.584;;;;
2019/04/21 03:24:47;;;;;;;5.9;5.4;;;;;;;24.1;24.07813;1006.564;;;;
2019/04/21 03:27:18;;;;;;;5.9;5.3;;;;;;;24.1;24.06641;1006.508;;;;
2019/04/21 03:29:52;;;;;;;5.8;5.2;;;;;;;24.08;24.05371;1006.503;;;;
2019/04/21 03:32:22;;;;;;;5.8;5.2;;;;;;;24.07;24.05273;1006.469;;;;
2019/04/21 03:34:50;;;;;;;6.2;5.4;;;;;;;24.07;24.06445;1006.461;;;;
2019/04/21 03:37:22;;;;;;;6.6;5.2;;;;;;;24.07;24.08789;1006.396;;;;
2019/04/21 03:39:53;;;;;;;6;5.4;;;;;;;24.04;24.13379;1006.434;;;;
2019/04/21 03:42:22;;;;;;;6.4;5.7;;;;;;;24.04;24.13379;1006.357;;;;
2019/04/21 03:44:52;;;;;;;6.2;5.2;;;;;;;24.02;24.16797;1006.398;;;;
2019/04/21 03:47:25;;;;;;;6.4;5.8;;;;;;;24.02;24.19238;1006.347;;;;
2019/04/21 03:49:53;;;;;;;6.6;5.5;;;;;;;24.01;24.2041;1006.368;;;;
2019/04/21 03:52:35;;;;;;;6.2;5.6;;;;;;;24;24.23926;1006.301;;;;
2019/04/21 03:55:11;;;;;;;6.7;5.8;;;;;;;24.02;24.2627;1006.366;;;;
2019/04/21 03:57:40;;;;;;;6.2;5.6;;;;;;;24.01;24.28613;1006.387;;;;
2019/04/21 04:02:42;;;;;;;6.2;5.6;;;;;;;23.99;24.32129;1006.398;;;;
2019/04/21 04:05:22;;;;;;;7.4;5.6;;;;;;;23.98;24.35547;1006.421;;;;
2019/04/21 04:07:45;;;;;;;6.3;5.7;;;;;;;23.98;24.35645;1006.429;;;;
2019/04/21 04:10:10;;;;;;;6.1;5.4;;;;;;;23.97;24.36719;1006.385;;;;
2019/04/21 04:12:41;;;;;;;6.1;5.5;;;;;;;23.97;24.37891;1006.348;;;;
2019/04/21 04:15:11;;;;;;;6.3;5.7;;;;;;;23.97;24.39063;1006.367;;;;
2019/04/21 04:17:41;;;;;;;6.5;5.9;;;;;;;23.97;24.40234;1006.403;;;;
2019/04/21 04:20:14;;;;;;;7.1;5.6;;;;;;;23.96;24.41406;1006.451;;;;
2019/04/21 04:22:44;;;;;;;6.1;5.5;;;;;;;23.96;24.41406;1006.342;;;;
2019/04/21 04:25:14;;;;;;;6.8;5.8;;;;;;;23.98;24.41504;1006.356;;;;
2019/04/21 04:27:45;;;;;;;6.5;5.9;;;;;;;23.97;24.43848;1006.409;;;;
2019/04/21 04:30:15;;;;;;;6.1;5.5;;;;;;;23.97;24.4502;1006.418;;;;
2019/04/21 04:32:45;;;;;;;7;5.9;;;;;;;23.97;24.43848;1006.422;;;;
2019/04/21 04:35:16;;;;;;;6.6;5.9;;;;;;;23.98;24.4502;1006.384;;;;
2019/04/21 04:37:47;;;;;;;6.2;5.6;;;;;;;23.98;24.43945;1006.456;;;;
2019/04/21 04:40:42;;;;;;;6.2;5.6;;;;;;;23.98;24.46289;1006.415;;;;
2019/04/21 04:42:50;;;;;;;6.4;5.5;;;;;;;23.98;24.46289;1006.429;;;;
2019/04/21 04:45:19;;;;;;;6.1;5.5;;;;;;;23.99;24.46289;1006.455;;;;
2019/04/21 04:47:50;;;;;;;7.3;5.4;;;;;;;23.98;24.46289;1006.433;;;;
2019/04/21 04:50:21;;;;;;;6.7;5.8;;;;;;;23.98;24.47461;1006.392;;;;
2019/04/21 04:52:53;;;;;;;6.1;5.5;;;;;;;23.99;24.46289;1006.394;;;;
2019/04/21 04:55:23;;;;;;;7;6.3;;;;;;;24;24.45215;1006.438;;;;
2019/04/21 04:57:53;;;;;;;6.3;5.7;;;;;;;24.01;24.45215;1006.327;;;;
2019/04/21 05:00:24;;;;;;;6.5;5.8;;;;;;;24.02;24.46387;1006.348;;;;
2019/04/21 05:02:54;;;;;;;6;5.5;;;;;;;24.03;24.45313;1006.383;;;;
2019/04/21 05:05:25;;;;;;;6.2;5.6;;;;;;;24.02;24.46484;1006.415;;;;
2019/04/21 05:07:58;;;;;;;6.2;5.6;;;;;;;24.02;24.46387;1006.384;;;;
2019/04/21 05:10:30;;;;;;;6;5.5;;;;;;;24.03;24.47656;1006.396;;;;
2019/04/21 05:13:01;;;;;;;6.4;5.8;;;;;;;24.03;24.47656;1006.414;;;;
2019/04/21 05:15:30;;;;;;;6.5;5.9;;;;;;;24.04;24.48926;1006.467;;;;
2019/04/21 05:18:02;;;;;;;7.1;5.9;;;;;;;24.04;24.48926;1006.403;;;;
2019/04/21 05:20:31;;;;;;;6.4;5.8;;;;;;;24.05;24.51367;1006.428;;;;
2019/04/21 05:23:02;;;;;;;6.8;6.1;;;;;;;24.06;24.51367;1006.408;;;;
2019/04/21 05:25:32;;;;;;;6.5;5.9;;;;;;;24.07;24.51465;1006.379;;;;
2019/04/21 05:28:03;;;;;;;6.8;6;;;;;;;24.08;24.52637;1006.408;;;;
2019/04/21 05:30:43;;;;;;;6.3;5.7;;;;;;;24.08;24.53906;1006.399;;;;
2019/04/21 05:33:09;;;;;;;6.7;6;;;;;;;24.1;24.51563;1006.372;;;;
2019/04/21 05:35:42;;;;;;;6.7;5.6;;;;;;;24.13;24.51758;1006.415;;;;
2019/04/21 05:38:13;;;;;;;6.5;5.9;;;;;;;24.17;24.44922;1006.32;;;;
2019/04/21 05:40:31;;;;;;;6.3;5.7;;;;;;;24.22;24.4043;1006.214;;;;
2019/04/21 05:43:03;;;;;;;7;6.3;;;;;;;24.27;24.36035;1006.258;;;;
2019/04/21 05:45:28;;;;;;;6.3;5.7;;;;;;;24.33;24.30371;1006.259;;;;
2019/04/21 05:48:02;;;;;;;6.3;5.7;;;;;;;24.38;24.27148;1006.263;;;;
2019/04/21 05:50:26;;;;;;;6.7;5.7;;;;;;;24.42;24.2373;1006.328;;;;
2019/04/21 05:52:57;;;;;;;5.9;5.4;;;;;;;24.47;24.19336;1006.317;;;;
2019/04/21 05:55:26;;;;;;;6.3;5.7;;;;;;;24.52;24.14844;1006.323;;;;
2019/04/21 05:57:57;;;;;;;6.3;5.7;;;;;;;24.57;24.12695;1006.301;;;;
2019/04/21 06:00:28;;;;;;;6.9;6.3;;;;;;;24.61;24.08203;1006.342;;;;
2019/04/21 06:02:58;;;;;;;6.4;5.8;;;;;;;24.67;24.01367;1006.325;;;;
2019/04/21 06:05:29;;;;;;;6.1;5.5;;;;;;;24.72;23.96875;1006.282;;;;
2019/04/21 06:07:59;;;;;;;7;6;;;;;;;24.78;23.91309;1006.27;;;;
2019/04/21 06:10:30;;;;;;;6.2;5.6;;;;;;;24.84;23.85742;1006.265;;;;
2019/04/21 06:13:02;;;;;;;7.2;5.9;;;;;;;24.89;23.8125;1006.263;;;;
2019/04/21 06:15:32;;;;;;;6.8;6.1;;;;;;;24.95;23.78027;1006.192;;;;
2019/04/21 06:18:02;;;;;;;6.1;5.5;;;;;;;24.99;23.75781;1006.234;;;;
2019/04/21 06:20:33;;;;;;;6.3;5.7;;;;;;;25.02;23.74805;1006.24;;;;
2019/04/21 06:23:04;;;;;;;6.3;5.7;;;;;;;25.06;23.72656;1006.224;;;;
2019/04/21 06:25:34;;;;;;;6.8;5.7;;;;;;;25.15;23.63672;1006.144;;;;
2019/04/21 06:28:06;;;;;;;6.3;5.7;;;;;;;25.23;23.55762;1006.137;;;;
2019/04/21 06:30:35;;;;;;;6.6;5.9;;;;;;;25.3;23.49023;1006.232;;;;
2019/04/21 06:33:09;;;;;;;7;6.1;;;;;;;25.39;23.3877;1006.24;;;;
2019/04/21 06:39:18;;;;;;;6.6;5.7;;;;;;;25.47;23.28516;1006.185;;;;
2019/04/21 06:40:57;;;;;;;6.2;5.7;;;;;;;25.51;23.25195;1006.173;;;;
2019/04/21 06:43:28;;;;;;;6.3;5.5;;;;;;;25.59;23.16113;1006.137;;;;
2019/04/21 06:46:00;;;;;;;6.9;6.1;;;;;;;25.65;23.08105;1006.146;;;;
2019/04/21 06:48:32;;;;;;;6.4;5.8;;;;;;;25.67;23.04688;1006.133;;;;
2019/04/21 06:51:07;;;;;;;7;5.5;;;;;;;25.74;22.93066;1006.173;;;;
2019/04/21 06:53:39;;;;;;;6.3;5.7;;;;;;;25.8;22.83887;1006.206;;;;
2019/04/21 06:56:08;;;;;;;6.4;5.8;;;;;;;25.82;22.75684;1006.142;;;;
2019/04/21 06:58:37;;;;;;;6.7;6.1;;;;;;;25.88;22.68848;1006.188;;;;
2019/04/21 07:01:11;;;;;;;6.2;5.6;;;;;;;25.95;22.57324;1006.164;;;;
2019/04/21 07:03:41;;;;;;;7.2;5.9;;;;;;;25.99;22.50391;1006.183;;;;
2019/04/21 07:06:10;;;;;;;7.1;6;;;;;;;26.18;22.25195;1006.209;;;;
2019/04/21 07:08:43;;;;;;;6.5;5.8;;;;;;;26.56;21.84277;1006.121;;;;
2019/04/21 07:11:28;;;;;;;6.9;5.6;;;;;;;26.62;21.72559;1006.151;;;;
2019/04/21 07:14:05;;;;;;;6.7;6;;;;;;;26.98;21.38574;1006.195;;;;
2019/04/21 07:16:35;;;;;;;6.5;5.8;;;;;;;27.89;20.34277;1006.123;;;;
2019/04/21 07:19:14;;;;;;;6.8;6.1;;;;;;;28.15;20.02051;1006.247;;;;
2019/04/21 07:21:49;;;;;;;6.7;6;;;;;;;27.74;20.30078;1006.142;;;;
2019/04/21 07:24:20;;;;;;;7;6;;;;;;;28.1;20.07813;1006.167;;;;
2019/04/21 07:26:49;;;;;;;6.1;5.6;;;;;;;29.41;18.62695;1006.237;;;;
2019/04/21 07:29:21;;;;;;;6.8;5.7;;;;;;;29.86;18.1416;1006.207;;;;
2019/04/21 07:31:53;;;;;;;6.1;5.5;;;;;;;29.38;18.55371;1006.211;;;;
2019/04/21 07:34:21;;;;;;;6.1;5.5;;;;;;;28.38;19.57715;1006.125;;;;
2019/04/21 07:36:53;;;;;;;6.1;5.5;;;;;;;28.04;19.99121;1006.131;;;;
2019/04/21 07:39:23;;;;;;;7.3;5.7;;;;;;;27.78;20.29004;1006.181;;;;
2019/04/21 07:41:54;;;;;;;6.3;5.7;;;;;;;27.6;20.48535;1006.091;;;;
2019/04/21 07:44:24;;;;;;;6;5.4;;;;;;;27.68;20.41699;1006.102;;;;
2019/04/21 07:46:55;;;;;;;6.6;5.6;;;;;;;29.25;18.94336;1006.096;;;;
2019/04/21 07:52:10;;;;;;;6.9;5.8;;;;;;;36.13;12.61914;1006.097;;;;
2019/04/21 07:54:23;;;;;;;6.3;5.7;;;;;;;37.36;11.60449;1006.104;;;;
2019/04/21 07:56:54;;;;;;;6.6;6;;;;;;;38.31;10.85938;1006.093;;;;
2019/04/21 07:59:24;;;;;;;5.9;5.3;;;;;;;38.99;10.33691;1006.103;;;;
2019/04/21 08:01:55;;;;;;;7.1;5.8;;;;;;;39.58;9.945313;1006.093;;;;
2019/04/21 08:04:27;;;;;;;6.5;5.9;;;;;;;40.29;9.482422;1006.05;;;;
2019/04/21 08:06:56;;;;;;;6.5;5.4;;;;;;;40.71;9.196289;1006.078;;;;
2019/04/21 08:09:26;;;;;;;6.1;5.5;;;;;;;40.98;9.030273;1006.083;;;;
2019/04/21 08:11:57;;;;;;;6.2;5.6;;;;;;;41.31;8.81543;1006.012;;;;
2019/04/21 08:14:29;;;;;;;6;5.4;;;;;;;41.61;8.648438;1006.048;;;;
2019/04/21 08:16:59;;;;;;;5.5;4.9;;;;;;;41.72;8.564453;1006.011;;;;
2019/04/21 08:19:30;;;;;;;7.6;5.4;;;;;;;41.87;8.46875;1006.024;;;;
2019/04/21 08:22:09;;;;;;;5.8;5.3;;;;;;;41.78;8.516602;1006.006;;;;
2019/04/21 08:24:34;;;;;;;5.9;4.9;;;;;;;42.01;8.384766;1005.908;;;;
2019/04/21 08:27:04;;;;;;;5.6;5.1;;;;;;;42.33;8.15625;1005.951;;;;
2019/04/21 08:29:46;;;;;;;6;5.4;;;;;;;42.37;8.108398;1005.881;;;;
2019/04/21 08:32:20;;;;;;;5.9;5.3;;;;;;;42.53;8.024414;1005.984;;;;
2019/04/21 08:34:50;;;;;;;6.2;5.3;;;;;;;42.79;7.893555;1005.941;;;;
2019/04/21 08:37:17;;;;;;;5.3;4.8;;;;;;;42.98;7.797852;1005.875;;;;
2019/04/21 08:39:50;;;;;;;5.6;5.1;;;;;;;42.93;7.772461;1005.81;;;;
2019/04/21 08:42:20;;;;;;;5.7;5.1;;;;;;;42.98;7.760742;1005.81;;;;
2019/04/21 08:44:45;;;;;;;5.7;4.8;;;;;;;42.82;7.844727;1005.768;;;;
2019/04/21 08:47:35;;;;;;;4.9;4.5;;;;;;;42.71;7.879883;1005.771;;;;
2019/04/21 08:50:12;;;;;;;5.4;4.9;;;;;;;42.42;8.047852;1005.714;;;;
2019/04/21 08:52:42;;;;;;;6.3;5.2;;;;;;;41.99;8.286133;1005.662;;;;
2019/04/21 08:55:26;;;;;;;5.2;4.7;;;;;;;40.46;9.154297;1005.607;;;;
2019/04/21 08:58:08;;;;;;;5.3;4.8;;;;;;;36.68;11.67285;1005.524;;;;
2019/04/21 09:02:46;;;;;;;5.6;5;;;;;;;33.18;14.54297;1005.53;;;;
2019/04/21 09:05:07;;;;;;;5.9;5.3;;;;;;;32.55;15.17383;1005.485;;;;
2019/04/21 09:07:36;;;;;;;5.5;5;;;;;;;32.08;15.65234;1005.468;;;;
2019/04/21 09:10:07;;;;;;;5.7;5.1;;;;;;;31.67;16.02344;1005.446;;;;
2019/04/21 09:12:39;;;;;;;5.3;4.8;;;;;;;30.97;16.70801;1005.427;;;;
2019/04/21 09:15:08;;;;;;;5.9;5.4;;;;;;;30.54;17.13574;1005.421;;;;
2019/04/21 09:17:39;;;;;;;6.7;4.9;;;;;;;30.3;17.42773;1005.386;;;;
2019/04/21 09:20:10;;;;;;;6;5;;;;;;;30;17.72754;1005.333;;;;
2019/04/21 09:22:40;;;;;;;6.1;5;;;;;;;29.7;18.05176;1005.325;;;;
2019/04/21 09:25:11;;;;;;;5.8;5.2;;;;;;;29.49;18.25879;1005.259;;;;
2019/04/21 09:27:42;;;;;;;7.1;5.4;;;;;;;29.24;18.54785;1005.209;;;;
2019/04/21 09:30:12;;;;;;;7.4;5.3;;;;;;;29.21;18.63086;1005.17;;;;
2019/04/21 09:32:42;;;;;;;5.3;4.8;;;;;;;29.03;18.83887;1005.13;;;;
2019/04/21 09:35:13;;;;;;;6.3;4.9;;;;;;;28.87;19.01172;1005.125;;;;
2019/04/21 09:37:44;;;;;;;5.8;5.2;;;;;;;28.71;19.18457;1005.051;;;;
2019/04/21 09:40:14;;;;;;;5.6;4.8;;;;;;;28.58;19.3584;1005.09;;;;
2019/04/21 09:42:44;;;;;;;5.8;5.2;;;;;;;28.57;19.37012;1005.009;;;;
2019/04/21 09:45:15;;;;;;;5.5;4.9;;;;;;;28.51;19.42676;1004.991;;;;
2019/04/21 09:47:46;;;;;;;6.4;5;;;;;;;28.34;19.62207;1004.921;;;;
2019/04/21 09:50:20;;;;;;;5.2;4.7;;;;;;;28.16;19.85352;1004.903;;;;
2019/04/21 09:52:48;;;;;;;5.4;4.9;;;;;;;28.12;19.91113;1004.815;;;;
2019/04/21 09:55:21;;;;;;;5.7;4.8;;;;;;;28.08;19.96973;1004.772;;;;
2019/04/21 09:57:49;;;;;;;5.3;4.5;;;;;;;27.98;20.08398;1004.709;;;;
2019/04/21 10:00:20;;;;;;;6.1;4.8;;;;;;;27.85;20.26953;1004.688;;;;
2019/04/21 10:02:50;;;;;;;6.3;5.2;;;;;;;27.81;20.32813;1004.661;;;;
2019/04/21 10:05:20;;;;;;;5;4.5;;;;;;;27.76;20.37305;1004.603;;;;
2019/04/21 10:07:52;;;;;;;4.9;4.4;;;;;;;27.63;20.46289;1004.591;;;;
2019/04/21 10:10:22;;;;;;;5.1;4.6;;;;;;;27.52;20.63672;1004.461;;;;
2019/04/21 10:12:54;;;;;;;5.3;4.8;;;;;;;27.48;20.6709;1004.511;;;;
2019/04/21 10:15:24;;;;;;;5.3;4.8;;;;;;;27.38;20.74902;1004.437;;;;
2019/04/21 10:17:56;;;;;;;5.3;4.5;;;;;;;27.41;20.71484;1004.43;;;;
2019/04/21 10:20:33;;;;;;;5;4.5;;;;;;;27.32;20.78223;1004.308;;;;
2019/04/21 10:23:04;;;;;;;6.6;4.9;;;;;;;27.19;20.93164;1004.314;;;;
2019/04/21 10:25:37;;;;;;;5.6;4.6;;;;;;;27.14;20.97656;1004.192;;;;
2019/04/21 10:28:08;;;;;;;5;4.5;;;;;;;27.06;21.10352;1004.165;;;;
2019/04/21 10:30:38;;;;;;;5.8;4.7;;;;;;;27;21.18457;1004.141;;;;
2019/04/21 10:33:09;;;;;;;6.4;5;;;;;;;26.93;21.22949;1004.107;;;;
2019/04/21 10:35:36;;;;;;;5.9;5.2;;;;;;;26.88;21.30957;1004.027;;;;
2019/04/21 10:38:02;;;;;;;5.4;4.9;;;;;;;26.86;21.28516;1003.998;;;;
2019/04/21 10:40:36;;;;;;;5.5;4.8;;;;;;;26.78;21.3291;1003.966;;;;
2019/04/21 10:43:07;;;;;;;5.2;4.6;;;;;;;26.72;21.46875;1003.903;;;;
2019/04/21 10:45:37;;;;;;;5.3;4.9;;;;;;;26.69;21.41992;1003.876;;;;
2019/04/21 10:48:08;;;;;;;5;4.5;;;;;;;26.67;21.40723;1003.854;;;;
2019/04/21 10:50:38;;;;;;;5;4.5;;;;;;;26.62;21.47656;1003.791;;;;
2019/04/21 10:53:12;;;;;;;5;4.5;;;;;;;26.63;21.40527;1003.766;;;;
2019/04/21 10:55:42;;;;;;;5;4.5;;;;;;;26.55;21.54395;1003.712;;;;
2019/04/21 10:58:20;;;;;;;5.2;4.6;;;;;;;26.5;21.55371;1003.644;;;;
2019/04/21 11:00:47;;;;;;;5.3;4.8;;;;;;;26.52;21.44824;1003.63;;;;
2019/04/21 11:05:52;;;;;;;6.6;5.3;;;;;;;26.43;21.45508;1003.626;;;;
2019/04/21 11:08:21;;;;;;;5.3;4.8;;;;;;;26.42;21.40723;1003.571;;;;
2019/04/21 11:10:52;;;;;;;5.2;4.5;;;;;;;26.38;21.45313;1003.487;;;;
2019/04/21 11:13:24;;;;;;;5.3;4.6;;;;;;;26.37;21.36914;1003.53;;;;
2019/04/21 11:15:53;;;;;;;5.3;4.7;;;;;;;26.37;21.17871;1003.567;;;;
2019/04/21 11:18:25;;;;;;;4.9;4.4;;;;;;;26.34;21.20117;1003.537;;;;
2019/04/21 11:20:55;;;;;;;6;5.3;;;;;;;26.31;21.11621;1003.461;;;;
2019/04/21 11:23:26;;;;;;;5.1;4.6;;;;;;;26.32;21.08105;1003.473;;;;
2019/04/21 11:25:59;;;;;;;5;4.5;;;;;;;26.28;21.18652;1003.387;;;;
2019/04/21 11:28:28;;;;;;;5.9;4.7;;;;;;;26.24;21.14844;1003.381;;;;
2019/04/21 11:30:59;;;;;;;5.3;4.5;;;;;;;26.23;21.12402;1003.375;;;;
2019/04/21 11:33:28;;;;;;;5.5;4.8;;;;;;;26.18;21.16992;1003.298;;;;
2019/04/21 11:36:00;;;;;;;5.1;4.6;;;;;;;26.2;20.95605;1003.299;;;;
2019/04/21 11:38:47;;;;;;;5.5;4.5;;;;;;;26.15;20.87109;1003.207;;;;
2019/04/21 11:41:00;;;;;;;5.4;4.9;;;;;;;26.14;20.90625;1003.228;;;;
2019/04/21 11:43:48;;;;;;;5.7;4.6;;;;;;;26.17;20.90723;1003.168;;;;
2019/04/21 11:46:27;;;;;;;4.9;4.4;;;;;;;26.15;20.90625;1003.185;;;;
2019/04/21 11:48:57;;;;;;;4.9;4.4;;;;;;;26.13;20.95313;1003.108;;;;
2019/04/21 11:51:28;;;;;;;6.2;4.7;;;;;;;26.11;20.83301;1003.14;;;;
2019/04/21 11:53:59;;;;;;;4.9;4.2;;;;;;;26.12;20.60742;1003.115;;;;
2019/04/21 11:56:34;;;;;;;4.9;4.3;;;;;;;26.08;20.68945;1002.982;;;;
2019/04/21 11:59:12;;;;;;;4.9;4.4;;;;;;;26.07;20.61719;1003.015;;;;
2019/04/21 12:01:39;;;;;;;4.8;4.3;;;;;;;26.05;20.55762;1002.979;;;;
2019/04/21 12:04:10;;;;;;;4.8;4.3;;;;;;;26.04;20.49707;1002.998;;;;
2019/04/21 12:06:41;;;;;;;4.5;4.1;;;;;;;26.02;20.51953;1002.954;;;;
2019/04/21 12:09:12;;;;;;;4.4;4;;;;;;;26.01;20.49609;1002.983;;;;
2019/04/21 12:11:41;;;;;;;4.7;4;;;;;;;26;20.40039;1002.957;;;;
2019/04/21 12:14:14;;;;;;;4.4;4;;;;;;;25.99;20.36426;1002.928;;;;
2019/04/21 12:16:43;;;;;;;4.7;3.9;;;;;;;25.99;20.30469;1002.845;;;;
2019/04/21 12:19:14;;;;;;;4.4;4;;;;;;;25.98;20.17383;1002.811;;;;
2019/04/21 12:21:45;;;;;;;5.7;4.3;;;;;;;25.97;20.33984;1002.86;;;;
2019/04/21 12:24:14;;;;;;;4.4;4;;;;;;;25.96;20.19629;1002.773;;;;
2019/04/21 12:26:45;;;;;;;5.2;4.1;;;;;;;25.96;19.91113;1002.783;;;;
2019/04/21 12:29:16;;;;;;;4.6;4.1;;;;;;;25.94;19.87402;1002.678;;;;
2019/04/21 12:32:01;;;;;;;4.8;3.8;;;;;;;25.92;20.0166;1002.614;;;;
2019/04/21 12:34:14;;;;;;;4.4;3.9;;;;;;;25.91;20.06348;1002.624;;;;
2019/04/21 12:36:47;;;;;;;4.2;3.8;;;;;;;25.92;19.96875;1002.613;;;;
2019/04/21 12:39:16;;;;;;;4.1;3.7;;;;;;;25.91;19.95703;1002.555;;;;
2019/04/21 12:41:47;;;;;;;5.1;4.1;;;;;;;25.91;19.96777;1002.571;;;;
2019/04/21 12:44:19;;;;;;;5;4;;;;;;;25.89;19.95508;1002.543;;;;
2019/04/21 12:46:49;;;;;;;4.2;3.7;;;;;;;25.9;19.99121;1002.402;;;;
2019/04/21 12:49:19;;;;;;;4.3;3.8;;;;;;;25.91;19.93262;1002.41;;;;
2019/04/21 12:51:47;;;;;;;5.1;4.3;;;;;;;25.9;19.93262;1002.388;;;;
2019/04/21 12:54:17;;;;;;;4.3;3.9;;;;;;;25.91;19.90918;1002.392;;;;
2019/04/21 12:56:49;;;;;;;3.7;3.4;;;;;;;25.89;19.87207;1002.368;;;;
2019/04/21 12:59:18;;;;;;;4.5;3.6;;;;;;;25.9;19.8252;1002.294;;;;
2019/04/21 13:01:49;;;;;;;4.1;3.7;;;;;;;25.88;19.78906;1002.283;;;;
2019/04/21 13:04:20;;;;;;;4.1;3.6;;;;;;;25.87;19.7998;1002.176;;;;
2019/04/21 13:06:51;;;;;;;4.8;3.7;;;;;;;25.84;19.53711;1002.114;;;;
2019/04/21 13:09:22;;;;;;;3.5;3.2;;;;;;;25.84;19.84668;1002.112;;;;
2019/04/21 13:11:52;;;;;;;4.2;3.8;;;;;;;25.85;19.82324;1002.042;;;;
2019/04/21 13:14:23;;;;;;;4;3.5;;;;;;;25.84;19.8457;1002.022;;;;
2019/04/21 13:16:53;;;;;;;3.8;3.4;;;;;;;25.83;19.75098;1001.978;;;;
2019/04/21 13:19:24;;;;;;;3.6;3.3;;;;;;;25.82;19.86914;1001.856;;;;
2019/04/21 13:21:55;;;;;;;3.7;3.4;;;;;;;25.83;19.79883;1001.904;;;;
2019/04/21 13:24:27;;;;;;;3.9;3.4;;;;;;;25.83;19.89355;1001.823;;;;
2019/04/21 13:26:57;;;;;;;3.8;3.5;;;;;;;25.78;19.90332;1001.806;;;;
2019/04/21 13:29:29;;;;;;;4.3;3.6;;;;;;;25.8;19.97559;1001.7;;;;
2019/04/21 13:31:58;;;;;;;3.8;3.5;;;;;;;25.8;20.08203;1001.65;;;;
2019/04/21 13:34:28;;;;;;;3.5;3.2;;;;;;;25.79;20.15332;1001.676;;;;
2019/04/21 13:36:59;;;;;;;3.3;2.9;;;;;;;25.77;19.77246;1001.621;;;;
2019/04/21 13:39:35;;;;;;;3.8;3.5;;;;;;;25.76;20.10352;1001.605;;;;
2019/04/21 13:42:03;;;;;;;3.7;3.4;;;;;;;25.78;20.15234;1001.523;;;;
2019/04/21 13:44:30;;;;;;;3.5;3.2;;;;;;;25.75;20.24609;1001.487;;;;
2019/04/21 13:47:01;;;;;;;3.6;3.3;;;;;;;25.77;20.27148;1001.511;;;;
2019/04/21 13:49:44;;;;;;;4;3.3;;;;;;;25.77;20.34277;1001.41;;;;
2019/04/21 13:52:11;;;;;;;4;3.1;;;;;;;25.77;20.38965;1001.41;;;;
2019/04/21 13:54:41;;;;;;;3.7;3.4;;;;;;;25.75;20.37695;1001.31;;;;
2019/04/21 13:57:11;;;;;;;3.5;3.2;;;;;;;25.75;20.40039;1001.259;;;;
2019/04/21 13:59:42;;;;;;;3.2;2.9;;;;;;;25.75;20.50781;1001.172;;;;
2019/04/21 14:02:14;;;;;;;3.9;3.3;;;;;;;25.73;20.55469;1001.168;;;;
2019/04/21 14:04:44;;;;;;;3.9;3;;;;;;;25.73;20.57813;1001.13;;;;
2019/04/21 14:07:14;;;;;;;4;3.6;;;;;;;25.72;20.58984;1001.132;;;;
2019/04/21 14:09:45;;;;;;;3.8;3.1;;;;;;;25.72;20.64844;1001.106;;;;
2019/04/21 14:12:16;;;;;;;3.3;3;;;;;;;25.72;20.64844;1001.045;;;;
2019/04/21 14:14:49;;;;;;;3.7;3.3;;;;;;;25.71;20.66016;1001.039;;;;
2019/04/21 14:17:16;;;;;;;3.4;3.1;;;;;;;25.71;20.68457;1001.053;;;;
2019/04/21 14:19:48;;;;;;;3.8;3.5;;;;;;;25.71;20.70801;1000.998;;;;
2019/04/21 14:22:21;;;;;;;3.8;3;;;;;;;25.71;20.71973;1000.911;;;;
2019/04/21 14:24:48;;;;;;;3.9;3.3;;;;;;;25.69;20.73047;1000.919;;;;
2019/04/21 14:27:27;;;;;;;3.5;3.2;;;;;;;25.68;20.80176;1000.944;;;;
2019/04/21 14:29:56;;;;;;;3.5;3.2;;;;;;;25.68;20.8252;1000.81;;;;
2019/04/21 14:32:28;;;;;;;4.6;3.2;;;;;;;25.69;20.79004;1000.764;;;;
2019/04/21 14:34:59;;;;;;;3.3;2.8;;;;;;;25.68;20.83691;1000.739;;;;
2019/04/21 14:37:29;;;;;;;3.4;3.1;;;;;;;25.66;20.9082;1000.688;;;;
2019/04/21 14:40:00;;;;;;;3.5;3.2;;;;;;;25.66;20.9668;1000.729;;;;
2019/04/21 14:42:31;;;;;;;4.3;3.1;;;;;;;25.65;20.9668;1000.723;;;;
2019/04/21 14:45:03;;;;;;;3.5;3.2;;;;;;;25.64;20.97852;1000.715;;;;
2019/04/21 14:47:56;;;;;;;3.8;2.8;;;;;;;25.65;20.99023;1000.727;;;;
2019/04/21 14:52:34;;;;;;;3.8;2.6;;;;;;;25.63;20.98926;1000.557;;;;
2019/04/21 14:55:09;;;;;;;3.7;2.9;;;;;;;25.64;21.00195;1000.51;;;;
2019/04/21 14:57:33;;;;;;;3.3;3;;;;;;;25.63;21.03711;1000.581;;;;
2019/04/21 15:00:04;;;;;;;3;2.8;;;;;;;25.65;21.02539;1000.595;;;;
2019/04/21 15:02:35;;;;;;;3.1;2.6;;;;;;;25.64;21.03711;1000.514;;;;
2019/04/21 15:05:05;;;;;;;3;2.7;;;;;;;25.64;21.04883;1000.514;;;;
2019/04/21 15:07:36;;;;;;;3.2;2.9;;;;;;;25.63;21.08398;1000.506;;;;